createdAt,value
2022-09-23T00:02:07.281Z,75.57
2022-09-23T00:04:35.480Z,75.29
2022-09-23T00:07:03.653Z,75.79
2022-09-23T00:09:31.724Z,75.85
2022-09-23T00:12:00.822Z,75.87
2022-09-23T00:14:28.886Z,76.03
2022-09-23T00:16:57.244Z,76.05
2022-09-23T00:19:25.336Z,76.66
2022-09-23T00:21:53.307Z,77.46
2022-09-23T00:24:21.282Z,77.54
2022-09-23T00:26:49.456Z,77.25
2022-09-23T00:29:17.426Z,77.34
2022-09-23T00:31:45.616Z,77.32
2022-09-23T00:34:13.669Z,77.96
2022-09-23T00:36:42.970Z,78.00
2022-09-23T00:39:10.932Z,78.28
2022-09-23T00:41:39.422Z,78.24
2022-09-23T00:44:44.619Z,78.00
2022-09-23T00:47:27.584Z,78.91
2022-09-23T00:50:26.066Z,79.51
2022-09-23T00:52:57.111Z,79.44
2022-09-23T00:55:39.620Z,78.92
2022-09-23T00:58:11.165Z,79.34
2022-09-23T01:00:39.245Z,79.60
2022-09-23T01:03:07.606Z,79.89
2022-09-23T01:05:36.722Z,80.10
2022-09-23T01:08:05.094Z,79.79
2022-09-23T01:10:58.060Z,79.79
2022-09-23T01:13:44.357Z,79.85
2022-09-23T01:16:27.213Z,79.58
2022-09-23T01:19:13.363Z,79.53
2022-09-23T01:22:03.868Z,79.58
2022-09-23T01:24:49.210Z,80.00
2022-09-23T01:27:29.188Z,80.15
2022-09-23T01:30:16.925Z,79.76
2022-09-23T01:33:11.418Z,79.04
2022-09-23T01:35:56.075Z,79.03
2022-09-23T01:38:30.091Z,78.71
2022-09-23T01:41:13.010Z,78.22
2022-09-23T01:43:46.916Z,78.09
2022-09-23T01:46:28.196Z,77.87
2022-09-23T01:49:22.275Z,77.61
2022-09-23T01:51:58.452Z,77.67
2022-09-23T01:54:38.971Z,77.60
2022-09-23T01:57:18.960Z,77.65
2022-09-23T01:59:56.041Z,77.93
2022-09-23T02:02:29.856Z,78.25
2022-09-23T02:05:02.835Z,78.04
2022-09-23T02:07:38.096Z,78.18
2022-09-23T02:10:28.880Z,78.31
2022-09-23T02:13:05.538Z,78.52
2022-09-23T02:15:38.645Z,78.24
2022-09-23T02:18:15.420Z,78.21
2022-09-23T02:20:44.002Z,78.85
2022-09-23T02:23:17.451Z,78.97
2022-09-23T02:26:03.598Z,78.95
2022-09-23T02:28:43.650Z,79.17
2022-09-23T02:31:38.486Z,79.32
2022-09-23T02:34:15.838Z,79.44
2022-09-23T02:36:50.305Z,79.78
2022-09-23T02:39:21.710Z,80.13
2022-09-23T02:42:02.575Z,79.76
2022-09-23T02:44:33.086Z,79.79
2022-09-23T02:47:01.237Z,79.82
2022-09-23T02:49:31.299Z,80.24
2022-09-23T02:52:07.717Z,80.03
2022-09-23T02:54:37.585Z,80.37
2022-09-23T02:57:08.410Z,80.71
2022-09-23T02:59:37.410Z,80.24
2022-09-23T03:02:23.554Z,79.98
2022-09-23T03:05:11.472Z,80.54
2022-09-23T03:07:57.435Z,80.86
2022-09-23T03:10:36.674Z,80.84
2022-09-23T03:13:05.045Z,80.52
2022-09-23T03:15:44.490Z,80.70
2022-09-23T03:18:40.475Z,80.79
2022-09-23T03:21:21.089Z,80.80
2022-09-23T03:23:50.561Z,80.63
2022-09-23T03:26:27.537Z,80.75
2022-09-23T03:28:56.351Z,80.62
2022-09-23T03:31:25.061Z,80.30
2022-09-23T03:33:59.077Z,80.33
2022-09-23T03:36:52.215Z,80.50
2022-09-23T03:39:41.070Z,80.56
2022-09-23T03:42:16.925Z,80.42
2022-09-23T03:44:46.978Z,80.44
2022-09-23T03:47:16.598Z,80.35
2022-09-23T03:49:48.524Z,80.14
2022-09-23T03:52:18.351Z,80.43
2022-09-23T03:54:46.868Z,80.63
2022-09-23T03:57:15.291Z,80.47
2022-09-23T03:59:43.669Z,80.28
2022-09-23T04:02:12.097Z,79.74
2022-09-23T04:04:41.556Z,79.92
2022-09-23T04:07:11.119Z,79.59
2022-09-23T04:09:39.951Z,79.66
2022-09-23T04:12:08.428Z,79.58
2022-09-23T04:14:36.812Z,79.43
2022-09-23T04:17:04.885Z,79.19
2022-09-23T04:19:32.956Z,79.26
2022-09-23T04:22:01.129Z,79.04
2022-09-23T04:24:29.364Z,79.27
2022-09-23T04:26:57.780Z,79.60
2022-09-23T04:29:26.677Z,79.75
2022-09-23T04:31:54.923Z,79.80
2022-09-23T04:34:23.026Z,79.04
2022-09-23T04:36:51.095Z,78.58
2022-09-23T04:39:19.584Z,78.54
2022-09-23T04:41:47.550Z,78.00
2022-09-23T04:44:15.719Z,78.00
2022-09-23T04:46:48.234Z,78.18
2022-09-23T04:49:16.911Z,78.49
2022-09-23T04:51:46.296Z,78.81
2022-09-23T04:54:15.185Z,78.12
2022-09-23T04:56:43.159Z,78.34
2022-09-23T04:59:11.522Z,78.96
2022-09-23T05:01:40.274Z,79.15
2022-09-23T05:04:13.902Z,79.72
2022-09-23T05:06:45.299Z,80.48
2022-09-23T05:09:17.537Z,79.93
2022-09-23T05:11:45.722Z,79.89
2022-09-23T05:14:14.582Z,80.47
2022-09-23T05:16:42.615Z,80.64
2022-09-23T05:19:11.969Z,81.26
2022-09-23T05:21:40.449Z,81.21
2022-09-23T05:24:09.040Z,81.33
2022-09-23T05:26:37.104Z,81.44
2022-09-23T05:29:05.045Z,81.21
2022-09-23T05:31:33.084Z,80.86
2022-09-23T05:34:04.795Z,80.74
2022-09-23T05:36:38.207Z,80.54
2022-09-23T05:39:07.963Z,80.43
2022-09-23T05:41:36.704Z,79.95
2022-09-23T05:44:05.181Z,79.60
2022-09-23T05:46:33.760Z,79.52
2022-09-23T05:49:03.666Z,79.58
2022-09-23T05:51:34.442Z,79.82
2022-09-23T05:54:04.350Z,79.56
2022-09-23T05:56:34.251Z,79.70
2022-09-23T05:59:03.834Z,79.18
2022-09-23T06:01:35.525Z,79.30
2022-09-23T06:04:06.393Z,79.40
2022-09-23T06:06:38.049Z,79.48
2022-09-23T06:09:10.136Z,78.92
2022-09-23T06:11:38.454Z,78.92
2022-09-23T06:14:06.608Z,79.33
2022-09-23T06:16:36.070Z,79.14
2022-09-23T06:19:07.670Z,78.84
2022-09-23T06:21:38.454Z,79.23
2022-09-23T06:24:09.441Z,78.35
2022-09-23T06:26:38.856Z,77.73
2022-09-23T06:29:14.685Z,77.46
2022-09-23T06:31:43.537Z,78.06
2022-09-23T06:34:14.376Z,77.93
2022-09-23T06:36:45.836Z,77.66
2022-09-23T06:39:15.724Z,77.24
2022-09-23T06:41:45.545Z,77.54
2022-09-23T06:44:15.530Z,77.28
2022-09-23T06:46:44.332Z,76.86
2022-09-23T06:49:13.514Z,76.24
2022-09-23T06:51:41.705Z,76.70
2022-09-23T06:54:11.293Z,76.53
2022-09-23T06:56:40.269Z,76.89
2022-09-23T06:59:11.259Z,77.08
2022-09-23T07:01:39.419Z,77.09
2022-09-23T07:04:10.320Z,77.19
2022-09-23T07:06:39.145Z,77.57
2022-09-23T07:09:08.693Z,77.03
2022-09-23T07:11:37.718Z,76.41
2022-09-23T07:14:06.232Z,76.03
2022-09-23T07:16:34.294Z,75.93
2022-09-23T07:19:02.751Z,76.46
2022-09-23T07:21:31.455Z,76.20
2022-09-23T07:23:59.674Z,76.12
2022-09-23T07:26:29.136Z,75.82
2022-09-23T07:29:04.965Z,75.36
2022-09-23T07:31:39.728Z,75.61
2022-09-23T07:34:11.831Z,75.81
2022-09-23T07:36:43.540Z,76.41
2022-09-23T07:39:13.046Z,75.00
2022-09-23T07:41:44.615Z,74.52
2022-09-23T07:44:12.891Z,74.92
2022-09-23T07:46:41.430Z,75.02
2022-09-23T07:49:10.819Z,74.67
2022-09-23T07:51:41.094Z,74.68
2022-09-23T07:54:13.582Z,74.00
2022-09-23T07:56:43.178Z,73.78
2022-09-23T07:59:15.516Z,73.89
2022-09-23T08:01:46.436Z,74.56
2022-09-23T08:04:21.421Z,73.64
2022-09-23T08:07:02.134Z,73.65
2022-09-23T08:09:41.929Z,73.43
2022-09-23T08:12:16.050Z,72.51
2022-09-23T08:14:44.421Z,71.11
2022-09-23T08:17:13.245Z,70.67
2022-09-23T08:19:41.279Z,69.83
2022-09-23T08:22:09.461Z,70.16
2022-09-23T08:24:37.424Z,70.00
2022-09-23T08:27:06.223Z,69.79
2022-09-23T08:29:34.998Z,69.03
2022-09-23T08:32:02.979Z,68.77
2022-09-23T08:34:31.353Z,68.70
2022-09-23T08:36:59.628Z,69.33
2022-09-23T08:39:27.600Z,70.19
2022-09-23T08:42:17.894Z,70.49
2022-09-23T08:44:53.436Z,69.92
2022-09-23T08:47:27.995Z,68.74
2022-09-23T08:50:02.945Z,68.33
2022-09-23T08:52:43.150Z,69.10
2022-09-23T08:55:16.140Z,68.63
2022-09-23T08:58:23.853Z,70.11
2022-09-23T09:01:21.112Z,69.51
2022-09-23T09:03:55.103Z,66.23
2022-09-23T09:06:41.884Z,65.48
2022-09-23T09:09:37.874Z,65.62
2022-09-23T09:12:35.985Z,65.27
2022-09-23T09:15:08.039Z,65.09
2022-09-23T09:17:48.655Z,64.52
2022-09-23T09:20:28.810Z,63.74
2022-09-23T09:23:00.156Z,64.49
2022-09-23T09:25:49.733Z,63.73
2022-09-23T09:28:26.710Z,63.88
2022-09-23T09:31:00.052Z,61.79
2022-09-23T09:33:37.104Z,62.72
2022-09-23T09:36:36.458Z,61.56
2022-09-23T09:39:05.246Z,59.32
2022-09-23T09:41:33.459Z,58.40
2022-09-23T09:44:10.277Z,57.07
2022-09-23T09:46:54.775Z,57.61
2022-09-23T09:49:28.168Z,56.98
2022-09-23T09:52:38.915Z,56.46
2022-09-23T09:55:12.822Z,55.64
2022-09-23T09:57:44.257Z,56.30
2022-09-23T10:00:25.549Z,57.19
2022-09-23T10:03:01.607Z,57.08
2022-09-23T10:05:47.182Z,55.74
2022-09-23T10:08:35.126Z,55.30
2022-09-23T10:11:15.386Z,55.71
2022-09-23T10:14:06.797Z,54.68
2022-09-23T10:16:35.221Z,55.36
2022-09-23T10:19:11.648Z,55.06
2022-09-23T10:21:42.478Z,54.21
2022-09-23T10:24:23.276Z,54.76
2022-09-23T10:27:00.439Z,54.71
2022-09-23T10:29:33.990Z,55.30
2022-09-23T10:32:30.168Z,57.01
2022-09-23T10:35:06.942Z,57.56
2022-09-23T10:37:39.624Z,57.05
2022-09-23T10:40:35.361Z,54.83
2022-09-23T10:43:48.578Z,52.31
2022-09-23T10:46:46.250Z,51.83
2022-09-23T10:49:45.197Z,48.98
2022-09-23T10:52:36.477Z,48.00
2022-09-23T10:55:23.086Z,48.15
2022-09-23T10:58:00.767Z,48.69
2022-09-23T11:00:39.319Z,51.05
2022-09-23T11:03:17.640Z,52.71
2022-09-23T11:06:00.937Z,53.08
2022-09-23T11:08:59.437Z,53.06
2022-09-23T11:11:49.312Z,55.73
2022-09-23T11:14:26.161Z,54.89
2022-09-23T11:17:14.967Z,53.95
2022-09-23T11:19:45.548Z,55.83
2022-09-23T11:22:41.082Z,55.07
2022-09-23T11:25:46.806Z,53.27
2022-09-23T11:28:33.180Z,54.82
2022-09-23T11:31:21.442Z,57.20
2022-09-23T11:34:12.602Z,57.54
2022-09-23T11:36:49.122Z,54.86
2022-09-23T11:39:29.539Z,53.84
2022-09-23T11:42:01.814Z,51.61
2022-09-23T11:44:36.795Z,50.56
2022-09-23T11:47:11.905Z,48.88
2022-09-23T11:49:53.978Z,47.97
2022-09-23T11:52:24.927Z,46.28
2022-09-23T11:54:58.749Z,45.09
2022-09-23T11:57:49.002Z,43.96
2022-09-23T12:00:28.251Z,45.25
2022-09-23T12:03:09.538Z,45.69
2022-09-23T12:06:00.215Z,45.96
2022-09-23T12:08:33.699Z,48.03
2022-09-23T12:11:10.618Z,49.24
2022-09-23T12:14:12.271Z,49.06
2022-09-23T12:16:46.142Z,50.44
2022-09-23T12:19:38.903Z,50.65
2022-09-23T12:22:50.730Z,51.92
2022-09-23T12:25:33.547Z,50.18
2022-09-23T12:28:11.868Z,48.36
2022-09-23T12:30:41.473Z,47.81
2022-09-23T12:33:28.538Z,48.76
2022-09-23T12:36:12.336Z,49.17
2022-09-23T12:38:46.651Z,48.03
2022-09-23T12:41:26.707Z,47.81
2022-09-23T12:44:13.636Z,48.54
2022-09-23T12:46:46.199Z,48.51
2022-09-23T12:49:29.218Z,48.47
2022-09-23T12:52:12.338Z,49.41
2022-09-23T12:54:42.048Z,50.19
2022-09-23T12:57:11.459Z,50.44
2022-09-23T12:59:51.335Z,50.84
2022-09-23T13:02:25.106Z,51.29
2022-09-23T13:05:36.357Z,51.38
2022-09-23T13:08:25.029Z,50.98
2022-09-23T13:10:58.135Z,51.26
2022-09-23T13:13:41.836Z,51.69
2022-09-23T13:16:33.263Z,52.25
2022-09-23T13:19:04.642Z,52.69
2022-09-23T13:21:42.451Z,51.90
2022-09-23T13:24:13.202Z,54.71
2022-09-23T13:26:45.869Z,56.91
2022-09-23T13:29:23.903Z,58.26
2022-09-23T13:31:52.705Z,59.52
2022-09-23T13:34:24.799Z,60.98
2022-09-23T13:36:53.709Z,61.01
2022-09-23T13:39:29.202Z,60.83
2022-09-23T13:42:04.716Z,60.61
2022-09-23T13:44:32.884Z,59.66
2022-09-23T13:47:03.428Z,59.99
2022-09-23T13:49:36.498Z,62.16
2022-09-23T13:52:04.576Z,63.30
2022-09-23T13:54:50.243Z,63.10
2022-09-23T13:57:44.679Z,62.59
2022-09-23T14:00:21.388Z,62.35
2022-09-23T14:02:49.491Z,61.29
2022-09-23T14:05:26.395Z,60.38
2022-09-23T14:07:56.414Z,61.50
2022-09-23T14:10:27.868Z,61.38
2022-09-23T14:12:57.043Z,61.87
2022-09-23T14:15:25.493Z,62.08
2022-09-23T14:17:59.670Z,61.91
2022-09-23T14:20:27.814Z,61.35
2022-09-23T14:23:14.230Z,61.50
2022-09-23T14:25:46.278Z,61.58
2022-09-23T14:28:17.082Z,61.64
2022-09-23T14:30:48.256Z,61.19
2022-09-23T14:33:32.236Z,61.28
2022-09-23T14:36:29.255Z,61.52
2022-09-23T14:39:12.480Z,61.94
2022-09-23T14:41:44.443Z,61.32
2022-09-23T14:44:22.934Z,60.41
2022-09-23T14:47:00.149Z,60.12
2022-09-23T14:49:28.430Z,60.71
2022-09-23T14:52:05.916Z,61.09
2022-09-23T14:54:39.812Z,61.15
2022-09-23T14:57:23.507Z,60.79
2022-09-23T15:00:00.421Z,60.43
2022-09-23T15:02:37.837Z,60.80
2022-09-23T15:05:13.040Z,60.02
2022-09-23T15:07:41.975Z,60.17
2022-09-23T15:10:20.019Z,60.22
2022-09-23T15:12:50.528Z,60.43
2022-09-23T15:15:19.685Z,60.05
2022-09-23T15:17:48.082Z,59.82
2022-09-23T15:20:16.054Z,59.76
2022-09-23T15:22:50.078Z,59.52
2022-09-23T15:25:41.383Z,59.40
2022-09-23T15:28:09.345Z,60.28
2022-09-23T15:30:38.544Z,60.21
2022-09-23T15:33:07.132Z,61.94
2022-09-23T15:35:36.624Z,63.59
2022-09-23T15:38:04.730Z,64.47
2022-09-23T15:40:35.281Z,66.06
2022-09-23T15:43:21.193Z,66.84
2022-09-23T15:45:53.312Z,68.11
2022-09-23T15:48:27.849Z,68.67
2022-09-23T15:50:56.099Z,69.59
2022-09-23T15:53:27.149Z,69.09
2022-09-23T15:55:55.207Z,69.07
2022-09-23T15:58:25.248Z,68.90
2022-09-23T16:00:57.470Z,68.86
2022-09-23T16:03:30.082Z,69.51
2022-09-23T16:06:02.351Z,70.22
2022-09-23T16:08:33.193Z,71.17
2022-09-23T16:11:01.663Z,72.30
2022-09-23T16:13:29.844Z,71.06
2022-09-23T16:15:57.881Z,70.48
2022-09-23T16:18:26.187Z,71.51
2022-09-23T16:20:54.786Z,71.37
2022-09-23T16:23:34.824Z,73.03
2022-09-23T16:26:14.037Z,72.93
2022-09-23T16:28:43.263Z,72.63
2022-09-23T16:31:12.130Z,72.04
2022-09-23T16:33:40.530Z,72.06
2022-09-23T16:36:22.121Z,71.84
2022-09-23T16:38:50.704Z,72.47
2022-09-23T16:41:18.779Z,73.16
2022-09-23T16:43:47.253Z,73.23
2022-09-23T16:46:17.329Z,73.23
2022-09-23T16:48:52.133Z,73.46
2022-09-23T16:51:23.914Z,73.43
2022-09-23T16:53:55.557Z,73.40
2022-09-23T16:56:28.862Z,73.01
2022-09-23T16:58:57.400Z,72.73
2022-09-23T17:01:46.109Z,72.56
2022-09-23T17:04:17.089Z,73.20
2022-09-23T17:06:50.633Z,73.18
2022-09-23T17:09:20.703Z,73.53
2022-09-23T17:12:15.718Z,73.67
2022-09-23T17:14:43.991Z,74.04
2022-09-23T17:17:11.961Z,73.88
2022-09-23T17:19:41.642Z,74.00
2022-09-23T17:22:10.257Z,73.67
2022-09-23T17:24:38.327Z,73.67
2022-09-23T17:27:06.421Z,73.87
2022-09-23T17:29:34.679Z,73.95
2022-09-23T17:32:05.201Z,73.93
2022-09-23T17:34:33.588Z,74.16
2022-09-23T17:37:02.623Z,74.19
2022-09-23T17:39:31.783Z,74.55
2022-09-23T17:41:59.845Z,74.67
2022-09-23T17:44:27.811Z,74.84
2022-09-23T17:46:56.093Z,74.65
2022-09-23T17:49:24.581Z,74.86
2022-09-23T17:51:52.685Z,74.59
2022-09-23T17:54:20.721Z,74.80
2022-09-23T17:56:48.685Z,75.42
2022-09-23T17:59:16.915Z,74.93
2022-09-23T18:01:44.975Z,74.92
2022-09-23T18:04:13.215Z,75.49
2022-09-23T18:06:41.381Z,75.78
2022-09-23T18:09:10.457Z,75.91
2022-09-23T18:11:40.458Z,75.96
2022-09-23T18:14:15.542Z,76.17
2022-09-23T18:16:46.229Z,76.71
2022-09-23T18:19:19.900Z,76.76
2022-09-23T18:21:54.549Z,77.05
2022-09-23T18:24:38.927Z,77.58
2022-09-23T18:27:07.638Z,77.85
2022-09-23T18:29:36.335Z,77.77
2022-09-23T18:32:04.483Z,77.32
2022-09-23T18:34:33.283Z,77.28
2022-09-23T18:37:01.253Z,75.01
2022-09-23T18:39:29.321Z,75.17
2022-09-23T18:41:57.292Z,75.42
2022-09-23T18:44:25.672Z,76.38
2022-09-23T18:46:53.742Z,76.35
2022-09-23T18:49:40.460Z,75.71
2022-09-23T18:52:08.525Z,75.48
2022-09-23T18:54:36.600Z,76.31
2022-09-23T18:57:05.383Z,76.30
2022-09-23T18:59:33.621Z,76.36
2022-09-23T19:02:02.623Z,76.34
2022-09-23T19:04:30.939Z,76.36
2022-09-23T19:06:59.106Z,76.46
2022-09-23T19:09:27.286Z,76.61
2022-09-23T19:11:55.352Z,76.74
2022-09-23T19:14:23.697Z,76.49
2022-09-23T19:16:52.180Z,76.36
2022-09-23T19:19:20.186Z,76.16
2022-09-23T19:21:48.258Z,75.78
2022-09-23T19:24:20.173Z,75.24
2022-09-23T19:26:49.010Z,74.32
2022-09-23T19:29:22.087Z,73.90
2022-09-23T19:31:51.222Z,73.96
2022-09-23T19:34:26.067Z,74.02
2022-09-23T19:36:57.460Z,74.53
2022-09-23T19:39:30.599Z,74.92
2022-09-23T19:41:59.247Z,75.31
2022-09-23T19:44:27.938Z,75.48
2022-09-23T19:46:57.438Z,75.53
2022-09-23T19:49:25.865Z,75.55
2022-09-23T19:51:56.073Z,75.79
2022-09-23T19:54:27.704Z,75.71
2022-09-23T19:56:55.976Z,75.79
2022-09-23T19:59:26.621Z,75.95
2022-09-23T20:01:55.031Z,75.68
2022-09-23T20:04:23.260Z,75.18
2022-09-23T20:06:51.228Z,75.94
2022-09-23T20:09:19.301Z,76.65
2022-09-23T20:11:47.904Z,77.23
2022-09-23T20:14:18.004Z,77.32
2022-09-23T20:16:46.487Z,76.88
2022-09-23T20:19:15.333Z,77.48
2022-09-23T20:21:43.224Z,77.67
2022-09-23T20:24:12.553Z,77.74
2022-09-23T20:26:59.251Z,77.77
2022-09-23T20:29:27.228Z,77.82
2022-09-23T20:31:56.836Z,77.93
2022-09-23T20:34:24.906Z,77.91
2022-09-23T20:36:52.838Z,78.08
2022-09-23T20:39:21.145Z,77.71
2022-09-23T20:41:49.935Z,77.68
2022-09-23T20:44:18.448Z,77.87
2022-09-23T20:46:48.931Z,77.80
2022-09-23T20:49:18.147Z,77.76
2022-09-23T20:51:50.266Z,77.72
2022-09-23T20:54:19.345Z,77.51
2022-09-23T20:56:48.024Z,77.22
2022-09-23T20:59:18.188Z,77.29
2022-09-23T21:01:47.904Z,77.15
2022-09-23T21:04:16.718Z,76.62
2022-09-23T21:06:45.024Z,76.50
2022-09-23T21:09:13.062Z,76.12
2022-09-23T21:11:41.235Z,75.78
2022-09-23T21:14:09.689Z,75.12
2022-09-23T21:16:38.344Z,75.16
2022-09-23T21:19:08.620Z,75.17
2022-09-23T21:21:36.714Z,74.98
2022-09-23T21:24:31.371Z,74.72
2022-09-23T21:26:53.430Z,74.54
2022-09-23T21:29:21.926Z,74.80
2022-09-23T21:31:50.219Z,74.67
2022-09-23T21:34:19.588Z,74.23
2022-09-23T21:36:48.483Z,74.24
2022-09-23T21:39:16.763Z,74.62
2022-09-23T21:41:45.049Z,74.41
2022-09-23T21:44:12.994Z,74.58
2022-09-23T21:46:41.071Z,75.11
2022-09-23T21:49:09.317Z,75.11
2022-09-23T21:51:41.265Z,75.02
2022-09-23T21:54:15.971Z,75.09
2022-09-23T21:56:44.850Z,74.99
2022-09-23T21:59:13.049Z,75.57
2022-09-23T22:01:44.625Z,76.33
2022-09-23T22:04:18.799Z,76.35
2022-09-23T22:06:49.041Z,76.43
2022-09-23T22:09:20.569Z,76.62
2022-09-23T22:12:07.362Z,77.05
2022-09-23T22:14:36.559Z,76.98
2022-09-23T22:17:06.873Z,76.90
2022-09-23T22:19:40.253Z,77.12
2022-09-23T22:22:13.583Z,76.94
2022-09-23T22:24:46.821Z,77.29
2022-09-23T22:27:17.675Z,77.75
2022-09-23T22:30:04.524Z,77.59
2022-09-23T22:32:41.890Z,77.82
2022-09-23T22:35:19.397Z,78.14
2022-09-23T22:37:48.801Z,78.03
2022-09-23T22:40:17.149Z,78.07
2022-09-23T22:42:45.968Z,77.94
2022-09-23T22:45:14.176Z,77.72
2022-09-23T22:47:45.783Z,77.68
2022-09-23T22:50:14.993Z,77.64
2022-09-23T22:52:43.891Z,77.29
2022-09-23T22:55:12.584Z,77.39
2022-09-23T22:57:41.063Z,77.32
2022-09-23T23:00:12.201Z,77.15
2022-09-23T23:02:40.477Z,76.99
2022-09-23T23:05:08.964Z,76.69
2022-09-23T23:07:37.433Z,76.88
2022-09-23T23:10:10.279Z,76.94
2022-09-23T23:12:39.731Z,76.91
2022-09-23T23:15:11.797Z,76.78
2022-09-23T23:17:41.396Z,76.90
2022-09-23T23:20:09.522Z,76.97
2022-09-23T23:22:37.650Z,76.95
2022-09-23T23:25:06.331Z,76.82
2022-09-23T23:27:34.712Z,76.69
2022-09-23T23:30:02.679Z,76.65
2022-09-23T23:32:31.159Z,76.76
2022-09-23T23:34:59.233Z,76.70
2022-09-23T23:37:30.159Z,76.40
2022-09-23T23:39:58.247Z,76.16
2022-09-23T23:42:27.353Z,76.17
2022-09-23T23:44:55.317Z,76.09
2022-09-23T23:47:24.200Z,75.97
2022-09-23T23:49:52.156Z,75.93
2022-09-23T23:52:20.243Z,75.68
2022-09-23T23:54:48.318Z,76.04
2022-09-23T23:57:16.227Z,76.19
2022-09-23T23:59:44.255Z,76.80
